createdAt,value
2018-06-15T00:03:00.694Z,99181.92
2018-06-15T00:06:04.691Z,99182.92
2018-06-15T00:09:07.984Z,99177.03
2018-06-15T00:12:10.979Z,99174.09
2018-06-15T00:15:13.984Z,99175.33
2018-06-15T00:18:17.048Z,99176.14
2018-06-15T00:21:20.071Z,99169.75
2018-06-15T00:24:22.948Z,99159.68
2018-06-15T00:27:26.021Z,99163.01
2018-06-15T00:30:29.008Z,99160.38
2018-06-15T00:33:31.996Z,99160.45
2018-06-15T00:36:35.049Z,99157.51
2018-06-15T00:39:37.976Z,99154.68
2018-06-15T00:42:42.097Z,99151.86
2018-06-15T00:45:45.063Z,99152.55
2018-06-15T00:48:48.122Z,99154.68
2018-06-15T00:51:53.164Z,99153.98
2018-06-15T00:54:58.366Z,99152.86
2018-06-15T00:58:01.395Z,99147.98
2018-06-15T01:01:06.392Z,99147.41
2018-06-15T01:04:09.382Z,99145.47
2018-06-15T01:07:12.367Z,99138.77
2018-06-15T01:10:16.501Z,99142.24
2018-06-15T01:13:20.509Z,99132.33
2018-06-15T01:16:23.460Z,99137.59
2018-06-15T01:19:26.559Z,99140.66
2018-06-15T01:22:29.628Z,99144.61
2018-06-15T01:25:34.652Z,99134.58
2018-06-15T01:28:37.707Z,99140.59
2018-06-15T01:31:40.770Z,99131.38
2018-06-15T01:34:43.787Z,99129.05
2018-06-15T01:37:47.748Z,99134.13
2018-06-15T01:40:50.761Z,99134.43
2018-06-15T01:43:54.852Z,99134.94
2018-06-15T01:46:58.957Z,99139.00
2018-06-15T01:50:02.082Z,99136.87
2018-06-15T01:53:05.076Z,99136.56
2018-06-15T01:56:08.155Z,99129.66
2018-06-15T01:59:11.104Z,99124.20
2018-06-15T02:02:14.026Z,99128.47
2018-06-15T02:05:17.113Z,99123.70
2018-06-15T02:08:21.182Z,99128.07
2018-06-15T02:11:26.434Z,99120.63
2018-06-15T02:14:29.750Z,99123.61
2018-06-15T02:17:32.869Z,99127.81
2018-06-15T02:20:35.867Z,99123.94
2018-06-15T02:23:38.829Z,99123.94
2018-06-15T02:26:41.885Z,99127.62
2018-06-15T02:29:44.839Z,99132.63
2018-06-15T02:32:47.907Z,99125.66
2018-06-15T02:35:50.985Z,99129.92
2018-06-15T02:38:54.054Z,99134.61
2018-06-15T02:41:58.212Z,99127.84
2018-06-15T02:45:02.037Z,99127.02
2018-06-15T02:48:05.835Z,99131.41
2018-06-15T02:51:08.885Z,99126.95
2018-06-15T02:54:11.985Z,99126.33
2018-06-15T02:57:16.026Z,99134.16
2018-06-15T03:00:19.075Z,99131.20
2018-06-15T03:03:22.182Z,99128.19
2018-06-15T03:06:26.359Z,99133.27
2018-06-15T03:09:29.378Z,99129.43
2018-06-15T03:12:33.157Z,99122.54
2018-06-15T03:15:36.177Z,99127.30
2018-06-15T03:18:40.213Z,99128.42
2018-06-15T03:21:43.740Z,99130.44
2018-06-15T03:24:46.784Z,99125.60
2018-06-15T03:27:49.804Z,99127.84
2018-06-15T03:30:52.848Z,99133.34
2018-06-15T03:33:56.160Z,99125.37
2018-06-15T03:36:59.093Z,99131.56
2018-06-15T03:40:03.293Z,99132.57
2018-06-15T03:43:07.329Z,99137.14
2018-06-15T03:46:10.356Z,99133.03
2018-06-15T03:49:13.360Z,99139.34
2018-06-15T03:52:16.417Z,99137.60
2018-06-15T03:55:19.521Z,99141.44
2018-06-15T03:58:22.472Z,99139.62
2018-06-15T04:01:26.556Z,99143.03
2018-06-15T04:04:30.601Z,99146.48
2018-06-15T04:07:33.566Z,99147.41
2018-06-15T04:10:36.702Z,99157.36
2018-06-15T04:13:39.754Z,99156.97
2018-06-15T04:16:44.715Z,99156.97
2018-06-15T04:19:47.811Z,99163.17
2018-06-15T04:22:50.804Z,99163.43
2018-06-15T04:25:53.804Z,99164.60
2018-06-15T04:28:56.894Z,99168.20
2018-06-15T04:32:00.000Z,99166.38
2018-06-15T04:35:03.183Z,99162.16
2018-06-15T04:38:06.179Z,99166.72
2018-06-15T04:41:10.176Z,99165.63
2018-06-15T04:44:14.239Z,99164.92
2018-06-15T04:47:17.309Z,99169.81
2018-06-15T04:50:20.291Z,99174.34
2018-06-15T04:53:23.269Z,99171.34
2018-06-15T04:56:26.942Z,99172.20
2018-06-15T04:59:30.391Z,99165.80
2018-06-15T05:02:33.373Z,99172.55
2018-06-15T05:05:36.463Z,99171.30
2018-06-15T05:08:39.684Z,99169.68
2018-06-15T05:11:42.672Z,99173.24
2018-06-15T05:14:45.857Z,99177.23
2018-06-15T05:17:48.907Z,99180.25
2018-06-15T05:20:52.982Z,99185.16
2018-06-15T05:23:58.015Z,99184.61
2018-06-15T05:27:04.732Z,99182.88
2018-06-15T05:30:07.789Z,99192.44
2018-06-15T05:33:11.137Z,99184.05
2018-06-15T05:36:15.175Z,99197.31
2018-06-15T05:39:25.273Z,99190.77
2018-06-15T05:42:29.305Z,99196.82
2018-06-15T05:45:32.366Z,99198.41
2018-06-15T05:48:37.431Z,99198.98
2018-06-15T05:51:41.637Z,99199.23
2018-06-15T05:54:48.319Z,99195.66
2018-06-15T05:57:51.297Z,99192.83
2018-06-15T06:00:57.884Z,99193.22
2018-06-15T06:04:01.554Z,99200.98
2018-06-15T06:07:11.318Z,99195.36
2018-06-15T06:10:14.313Z,99203.97
2018-06-15T06:13:20.909Z,99196.83
2018-06-15T06:16:23.899Z,99201.02
2018-06-15T06:19:26.959Z,99203.02
2018-06-15T06:22:31.947Z,99204.94
2018-06-15T06:25:34.892Z,99202.97
2018-06-15T06:28:39.010Z,99209.05
2018-06-15T06:31:42.087Z,99211.09
2018-06-15T06:34:45.000Z,99209.36
2018-06-15T06:37:49.021Z,99216.25
2018-06-15T06:40:52.017Z,99219.02
2018-06-15T06:43:55.080Z,99223.44
2018-06-15T06:46:59.160Z,99222.19
2018-06-15T06:50:02.173Z,99224.06
2018-06-15T06:53:06.201Z,99224.24
2018-06-15T06:56:09.211Z,99222.06
2018-06-15T06:59:12.153Z,99229.66
2018-06-15T07:02:21.259Z,99228.53
2018-06-15T07:05:25.422Z,99225.74
2018-06-15T07:08:32.111Z,99233.89
2018-06-15T07:11:35.464Z,99226.49
2018-06-15T07:14:39.387Z,99220.53
2018-06-15T07:17:43.439Z,99222.92
2018-06-15T07:20:46.421Z,99226.25
2018-06-15T07:23:49.368Z,99226.55
2018-06-15T07:26:52.400Z,99231.97
2018-06-15T07:29:55.417Z,99231.05
2018-06-15T07:32:58.459Z,99232.52
2018-06-15T07:36:01.570Z,99235.72
2018-06-15T07:39:06.766Z,99232.16
2018-06-15T07:42:09.806Z,99236.68
2018-06-15T07:45:12.755Z,99239.23
2018-06-15T07:48:16.379Z,99235.97
2018-06-15T07:51:19.480Z,99241.55
2018-06-15T07:54:22.501Z,99237.58
2018-06-15T07:57:25.567Z,99237.30
2018-06-15T08:00:28.647Z,99244.55
2018-06-15T08:03:31.748Z,99236.78
2018-06-15T08:06:34.736Z,99250.26
2018-06-15T08:09:37.738Z,99251.42
2018-06-15T08:12:40.816Z,99245.25
2018-06-15T08:15:43.794Z,99241.27
2018-06-15T08:18:47.473Z,99235.62
2018-06-15T08:21:50.555Z,99235.79
2018-06-15T08:24:53.517Z,99242.83
2018-06-15T08:27:56.660Z,99243.33
2018-06-15T08:31:00.661Z,99240.49
2018-06-15T08:34:04.739Z,99233.33
2018-06-15T08:37:07.783Z,99225.11
2018-06-15T08:40:10.773Z,99230.20
2018-06-15T08:43:13.864Z,99232.44
2018-06-15T08:46:17.682Z,99233.83
2018-06-15T08:49:21.308Z,99231.69
2018-06-15T08:52:25.165Z,99234.70
2018-06-15T08:55:28.259Z,99230.28
2018-06-15T08:58:31.507Z,99232.86
2018-06-15T09:01:34.484Z,99231.73
2018-06-15T09:04:37.590Z,99231.67
2018-06-15T09:07:40.842Z,99229.48
2018-06-15T09:10:44.594Z,99227.02
2018-06-15T09:13:47.695Z,99230.35
2018-06-15T09:16:50.744Z,99226.95
2018-06-15T09:19:53.760Z,99228.08
2018-06-15T09:22:56.677Z,99232.73
2018-06-15T09:25:59.821Z,99241.97
2018-06-15T09:29:03.085Z,99237.26
2018-06-15T09:32:06.061Z,99234.96
2018-06-15T09:35:11.496Z,99233.09
2018-06-15T09:38:14.512Z,99235.23
2018-06-15T09:41:17.521Z,99240.75
2018-06-15T09:44:20.549Z,99235.92
2018-06-15T09:47:23.648Z,99233.56
2018-06-15T09:50:26.762Z,99226.91
2018-06-15T09:53:29.894Z,99227.25
2018-06-15T09:56:33.575Z,99230.09
2018-06-15T09:59:42.467Z,99229.84
2018-06-15T10:02:45.591Z,99232.93
2018-06-15T10:05:48.648Z,99236.63
2018-06-15T10:08:51.804Z,99232.75
2018-06-15T10:11:55.046Z,99240.61
2018-06-15T10:14:58.057Z,99237.50
2018-06-15T10:18:01.180Z,99239.73
2018-06-15T10:21:05.206Z,99243.78
2018-06-15T10:24:08.345Z,99234.42
2018-06-15T10:27:11.516Z,99235.38
2018-06-15T10:30:14.625Z,99239.59
2018-06-15T10:33:17.712Z,99238.98
2018-06-15T10:36:20.737Z,99234.14
2018-06-15T10:39:23.800Z,99232.02
2018-06-15T10:42:26.871Z,99234.20
2018-06-15T10:45:29.885Z,99240.20
2018-06-15T10:48:32.932Z,99235.64
2018-06-15T10:51:35.994Z,99241.50
2018-06-15T10:54:39.044Z,99246.42
2018-06-15T10:57:43.574Z,99236.64
2018-06-15T11:00:46.616Z,99241.00
2018-06-15T11:03:49.844Z,99233.67
2018-06-15T11:06:52.985Z,99237.64
2018-06-15T11:09:56.006Z,99241.46
2018-06-15T11:12:59.057Z,99244.17
2018-06-15T11:16:02.037Z,99240.94
2018-06-15T11:19:05.165Z,99237.84
2018-06-15T11:22:08.291Z,99231.42
2018-06-15T11:25:11.382Z,99227.63
2018-06-15T11:28:15.909Z,99217.94
2018-06-15T11:31:20.053Z,99216.69
2018-06-15T11:34:23.736Z,99218.16
2018-06-15T11:37:27.600Z,99210.50
2018-06-15T11:40:30.669Z,99214.06
2018-06-15T11:43:33.640Z,99216.72
2018-06-15T11:46:36.701Z,99206.55
2018-06-15T11:49:39.817Z,99206.49
2018-06-15T11:52:42.853Z,99207.16
2018-06-15T11:55:45.876Z,99207.87
2018-06-15T11:58:49.030Z,99204.56
2018-06-15T12:01:52.306Z,99201.73
2018-06-15T12:04:55.693Z,99202.75
2018-06-15T12:07:58.804Z,99201.27
2018-06-15T12:11:01.706Z,99191.94
2018-06-15T12:14:04.868Z,99192.73
2018-06-15T12:17:07.944Z,99195.78
2018-06-15T12:20:10.948Z,99188.48
2018-06-15T12:23:13.986Z,99190.31
2018-06-15T12:26:17.161Z,99190.16
2018-06-15T12:29:20.143Z,99185.23
2018-06-15T12:32:23.210Z,99183.11
2018-06-15T12:35:26.286Z,99186.15
2018-06-15T12:38:29.286Z,99190.85
2018-06-15T12:41:32.224Z,99187.91
2018-06-15T12:44:35.461Z,99185.25
2018-06-15T12:47:39.417Z,99183.05
2018-06-15T12:50:42.608Z,99183.07
2018-06-15T12:53:45.759Z,99181.53
2018-06-15T12:56:48.838Z,99186.98
2018-06-15T12:59:52.188Z,99187.98
2018-06-15T13:02:56.423Z,99181.16
2018-06-15T13:05:59.855Z,99183.66
2018-06-15T13:09:06.052Z,99177.47
2018-06-15T13:12:08.980Z,99180.08
2018-06-15T13:15:12.015Z,99178.28
2018-06-15T13:18:15.075Z,99173.08
2018-06-15T13:21:18.320Z,99174.75
2018-06-15T13:24:22.499Z,99176.51
2018-06-15T13:27:25.537Z,99171.28
2018-06-15T13:30:28.533Z,99170.78
2018-06-15T13:33:31.656Z,99168.63
2018-06-15T13:36:34.909Z,99168.08
2018-06-15T13:39:37.954Z,99166.13
2018-06-15T13:42:40.889Z,99172.17
2018-06-15T13:45:43.972Z,99175.31
2018-06-15T13:48:47.273Z,99169.63
2018-06-15T13:51:50.225Z,99164.63
2018-06-15T13:54:53.342Z,99161.03
2018-06-15T13:57:56.397Z,99163.36
2018-06-15T14:00:59.489Z,99170.22
2018-06-15T14:04:03.286Z,99166.17
2018-06-15T14:07:06.415Z,99163.51
2018-06-15T14:10:09.337Z,99165.12
2018-06-15T14:13:12.482Z,99159.02
2018-06-15T14:16:15.525Z,99164.22
2018-06-15T14:19:18.598Z,99159.29
2018-06-15T14:22:21.550Z,99149.83
2018-06-15T14:25:24.584Z,99145.78
2018-06-15T14:28:27.572Z,99146.87
2018-06-15T14:31:30.785Z,99142.59
2018-06-15T14:34:33.812Z,99134.97
2018-06-15T14:37:36.894Z,99139.08
2018-06-15T14:40:40.009Z,99132.66
2018-06-15T14:43:42.948Z,99136.39
2018-06-15T14:46:46.312Z,99129.25
2018-06-15T14:49:49.462Z,99128.77
2018-06-15T14:52:52.471Z,99124.86
2018-06-15T14:55:55.495Z,99141.25
2018-06-15T14:58:58.492Z,99135.44
2018-06-15T15:02:01.527Z,99132.11
2018-06-15T15:05:04.729Z,99121.48
2018-06-15T15:08:07.762Z,99121.09
2018-06-15T15:11:10.890Z,99127.27
2018-06-15T15:14:13.849Z,99117.19
2018-06-15T15:17:16.957Z,99123.50
2018-06-15T15:20:19.995Z,99113.73
2018-06-15T15:23:22.904Z,99117.02
2018-06-15T15:26:25.911Z,99121.22
2018-06-15T15:29:29.032Z,99121.94
2018-06-15T15:32:32.036Z,99114.87
2018-06-15T15:35:35.142Z,99110.06
2018-06-15T15:38:38.144Z,99114.71
2018-06-15T15:41:41.205Z,99117.57
2018-06-15T15:44:46.276Z,99119.92
2018-06-15T15:47:49.233Z,99115.22
2018-06-15T15:50:52.370Z,99112.05
2018-06-15T15:53:55.476Z,99120.80
2018-06-15T15:56:58.544Z,99115.45
2018-06-15T16:00:01.587Z,99114.41
2018-06-15T16:03:05.653Z,99116.56
2018-06-15T16:06:08.724Z,99124.61
2018-06-15T16:09:11.759Z,99119.80
2018-06-15T16:12:14.918Z,99118.98
2018-06-15T16:15:17.939Z,99117.12
2018-06-15T16:18:20.943Z,99116.84
2018-06-15T16:21:24.068Z,99113.36
2018-06-15T16:24:27.198Z,99119.47
2018-06-15T16:27:31.245Z,99115.24
2018-06-15T16:30:34.388Z,99115.23
2018-06-15T16:33:37.485Z,99111.70
2018-06-15T16:36:40.462Z,99122.39
2018-06-15T16:39:43.452Z,99114.10
2018-06-15T16:42:46.475Z,99111.16
2018-06-15T16:45:49.587Z,99109.03
2018-06-15T16:48:52.699Z,99114.63
2018-06-15T16:51:58.414Z,99114.29
2018-06-15T16:55:01.483Z,99110.80
2018-06-15T16:58:04.524Z,99110.80
2018-06-15T17:01:07.560Z,99107.61
2018-06-15T17:04:10.532Z,99103.38
2018-06-15T17:07:14.061Z,99106.08
2018-06-15T17:10:17.387Z,99105.05
2018-06-15T17:13:20.453Z,99092.62
2018-06-15T17:16:23.713Z,99089.23
2018-06-15T17:19:26.778Z,99088.99
2018-06-15T17:22:30.028Z,99075.36
2018-06-15T17:25:33.097Z,99080.23
2018-06-15T17:28:36.133Z,99074.56
2018-06-15T17:31:39.279Z,99081.41
2018-06-15T17:34:42.379Z,99083.52
2018-06-15T17:37:45.366Z,99090.76
2018-06-15T17:40:48.341Z,99084.53
2018-06-15T17:43:51.326Z,99094.85
2018-06-15T17:46:54.319Z,99089.32
2018-06-15T17:49:57.423Z,99093.34
2018-06-15T17:53:00.399Z,99100.50
2018-06-15T17:56:03.548Z,99104.98
2018-06-15T17:59:06.994Z,99104.89
2018-06-15T18:02:10.023Z,99107.61
2018-06-15T18:05:13.065Z,99107.41
2018-06-15T18:08:17.333Z,99105.72
2018-06-15T18:11:28.408Z,99111.30
2018-06-15T18:14:31.499Z,99113.44
2018-06-15T18:17:34.780Z,99117.17
2018-06-15T18:20:37.841Z,99122.06
2018-06-15T18:23:40.891Z,99115.03
2018-06-15T18:26:44.042Z,99119.27
2018-06-15T18:29:46.990Z,99125.09
2018-06-15T18:32:50.007Z,99125.27
2018-06-15T18:35:53.321Z,99129.06
2018-06-15T18:38:56.653Z,99134.33
2018-06-15T18:41:59.768Z,99129.19
2018-06-15T18:45:02.749Z,99133.45
2018-06-15T18:48:06.037Z,99127.94
2018-06-15T18:51:09.060Z,99130.13
2018-06-15T18:54:12.083Z,99132.45
2018-06-15T18:57:16.025Z,99130.37
2018-06-15T19:00:18.922Z,99126.48
2018-06-15T19:03:22.610Z,99128.77
2018-06-15T19:06:26.615Z,99128.51
2018-06-15T19:09:30.152Z,99120.69
2018-06-15T19:12:33.437Z,99123.91
2018-06-15T19:15:36.374Z,99123.86
2018-06-15T19:18:39.591Z,99126.71
2018-06-15T19:21:42.640Z,99126.98
2018-06-15T19:24:45.785Z,99126.94
2018-06-15T19:27:48.796Z,99128.58
2018-06-15T19:30:51.935Z,99131.89
2018-06-15T19:33:55.021Z,99132.20
2018-06-15T19:36:58.085Z,99129.26
2018-06-15T19:40:01.087Z,99134.55
2018-06-15T19:43:05.282Z,99132.55
2018-06-15T19:46:08.336Z,99137.45
2018-06-15T19:49:11.401Z,99140.52
2018-06-15T19:52:14.428Z,99139.49
2018-06-15T19:55:17.449Z,99137.23
2018-06-15T19:58:20.421Z,99143.12
2018-06-15T20:01:23.502Z,99140.57
2018-06-15T20:04:26.524Z,99133.95
2018-06-15T20:07:29.616Z,99139.97
2018-06-15T20:10:32.533Z,99137.32
2018-06-15T20:13:35.478Z,99137.71
2018-06-15T20:16:38.544Z,99136.30
2018-06-15T20:19:41.566Z,99133.18
2018-06-15T20:22:44.557Z,99139.62
2018-06-15T20:25:47.570Z,99140.97
2018-06-15T20:28:50.558Z,99140.88
2018-06-15T20:31:54.656Z,99136.31
2018-06-15T20:34:57.703Z,99140.49
2018-06-15T20:38:03.218Z,99138.75
2018-06-15T20:41:06.178Z,99145.63
2018-06-15T20:44:09.176Z,99140.52
2018-06-15T20:47:12.227Z,99135.53
2018-06-15T20:50:15.428Z,99129.94
2018-06-15T20:53:18.628Z,99136.73
2018-06-15T20:56:21.571Z,99138.84
2018-06-15T20:59:25.604Z,99144.95
2018-06-15T21:02:29.608Z,99133.48
2018-06-15T21:05:33.600Z,99133.87
2018-06-15T21:08:36.549Z,99123.30
2018-06-15T21:11:39.584Z,99125.75
2018-06-15T21:14:42.531Z,99129.41
2018-06-15T21:17:45.492Z,99132.98
2018-06-15T21:20:48.435Z,99136.14
2018-06-15T21:23:51.396Z,99138.17
2018-06-15T21:26:54.414Z,99143.34
2018-06-15T21:29:57.468Z,99134.70
2018-06-15T21:33:00.478Z,99130.34
2018-06-15T21:36:03.458Z,99126.47
2018-06-15T21:39:07.836Z,99132.37
2018-06-15T21:42:10.770Z,99133.81
2018-06-15T21:45:13.689Z,99129.56
2018-06-15T21:48:16.821Z,99122.69
2018-06-15T21:51:19.826Z,99122.00
2018-06-15T21:54:22.853Z,99122.30
2018-06-15T21:57:25.905Z,99118.63
2018-06-15T22:00:30.845Z,99114.46
2018-06-15T22:03:33.968Z,99120.14
2018-06-15T22:06:36.948Z,99120.84
2018-06-15T22:09:39.957Z,99123.56
2018-06-15T22:12:43.040Z,99126.92
2018-06-15T22:15:45.932Z,99119.62
2018-06-15T22:18:48.890Z,99119.94
2018-06-15T22:21:52.844Z,99123.91
2018-06-15T22:24:55.868Z,99120.06
2018-06-15T22:27:58.768Z,99121.06
2018-06-15T22:31:01.758Z,99121.48
2018-06-15T22:34:05.442Z,99124.73
2018-06-15T22:37:09.314Z,99125.22
2018-06-15T22:40:12.269Z,99134.47
2018-06-15T22:43:16.298Z,99136.72
2018-06-15T22:46:19.248Z,99137.76
2018-06-15T22:49:22.941Z,99129.74
2018-06-15T22:52:26.623Z,99136.02
2018-06-15T22:55:29.689Z,99138.25
2018-06-15T22:58:32.644Z,99139.36
2018-06-15T23:01:35.597Z,99140.75
2018-06-15T23:04:38.663Z,99140.75
2018-06-15T23:07:41.715Z,99133.84
2018-06-15T23:10:44.619Z,99133.33
2018-06-15T23:13:48.095Z,99136.27
2018-06-15T23:16:50.977Z,99137.08
2018-06-15T23:19:54.025Z,99136.88
2018-06-15T23:22:57.054Z,99140.22
2018-06-15T23:26:00.035Z,99142.55
2018-06-15T23:29:03.184Z,99142.14
2018-06-15T23:32:06.735Z,99141.02
2018-06-15T23:35:09.750Z,99132.80
2018-06-15T23:38:12.766Z,99139.19
2018-06-15T23:41:16.738Z,99140.48
2018-06-15T23:44:19.755Z,99145.35
2018-06-15T23:47:23.008Z,99140.56
2018-06-15T23:50:26.094Z,99145.30
2018-06-15T23:53:30.539Z,99138.55
2018-06-15T23:56:36.899Z,99139.61
2018-06-15T23:59:40.360Z,99139.86
